Time;durP1;ratioP1;P1;durP2;ratioP2;P2;SDS_P1;SDS_P2;PMS_P1;PMS_P2;Temp;Humidity;BMP_temperature;BMP_pressure;BME280_temperature;BME280_humidity;BME280_pressure;Samples;Min_cycle;Max_cycle;Signal;HPM_P1;HPM_P2
2022/08/01 00:01:45;;;;;;;3.78;3.38;;;;;;;16.62;100.00;99340.38;4842038;29;20455;-76
2022/08/01 00:04:11;;;;;;;5.47;3.60;;;;;;;16.67;100.00;99353.16;4841779;29;20166;-76
2022/08/01 00:06:36;;;;;;;5.38;4.00;;;;;;;16.65;100.00;99347.19;4842055;29;20387;-76
2022/08/01 00:09:02;;;;;;;6.35;3.72;;;;;;;16.65;100.00;99352.47;4841779;29;20390;-76
2022/08/01 00:11:27;;;;;;;4.30;3.60;;;;;;;16.58;100.00;99341.56;4842049;29;20057;-76
2022/08/01 00:13:53;;;;;;;4.57;3.40;;;;;;;16.59;100.00;99353.75;4841783;29;20493;-76
2022/08/01 00:16:18;;;;;;;4.07;3.47;;;;;;;16.52;100.00;99335.91;4841504;29;20044;-75
2022/08/01 00:18:43;;;;;;;5.05;3.42;;;;;;;16.53;100.00;99342.88;4841699;29;20034;-75
2022/08/01 00:21:09;;;;;;;4.38;3.80;;;;;;;16.53;100.00;99343.72;4841359;29;20037;-75
2022/08/01 00:23:34;;;;;;;4.65;3.97;;;;;;;16.53;100.00;99348.97;4841462;29;20435;-75
2022/08/01 00:26:00;;;;;;;3.70;3.15;;;;;;;16.39;100.00;99328.13;4841060;29;20034;-76
2022/08/01 00:28:25;;;;;;;5.50;3.10;;;;;;;16.48;100.00;99351.09;4841557;29;20041;-77
2022/08/01 00:30:51;;;;;;;4.30;3.53;;;;;;;16.44;100.00;99350.50;4841501;29;20397;-76
2022/08/01 00:33:16;;;;;;;4.90;3.42;;;;;;;16.39;100.00;99349.16;4841245;29;20029;-76
2022/08/01 00:35:41;;;;;;;4.20;3.80;;;;;;;16.35;100.00;99342.44;4841512;29;20034;-76
2022/08/01 00:38:07;;;;;;;4.03;3.60;;;;;;;16.37;100.00;99337.94;4840768;29;20033;-77
2022/08/01 00:40:32;;;;;;;3.95;3.55;;;;;;;16.32;100.00;99338.28;4841514;29;20437;-77
2022/08/01 00:42:58;;;;;;;5.47;3.65;;;;;;;16.26;100.00;99336.09;4841025;29;20042;-77
2022/08/01 00:45:23;;;;;;;4.32;3.70;;;;;;;16.31;100.00;99346.28;4841707;29;20086;-76
2022/08/01 00:47:48;;;;;;;8.55;3.88;;;;;;;16.28;100.00;99333.38;4841323;29;20030;-77
2022/08/01 00:50:14;;;;;;;5.82;3.88;;;;;;;16.28;100.00;99336.00;4840751;29;20029;-76
2022/08/01 00:52:40;;;;;;;4.15;3.75;;;;;;;16.27;100.00;99343.06;4841150;29;20026;-77
2022/08/01 00:55:06;;;;;;;4.18;3.30;;;;;;;16.21;100.00;99327.72;4841269;29;20117;-77
2022/08/01 00:57:32;;;;;;;7.68;4.47;;;;;;;16.26;100.00;99336.09;4841369;29;20030;-77
2022/08/01 00:59:58;;;;;;;5.10;4.00;;;;;;;16.19;100.00;99324.38;4841198;29;20041;-76
2022/08/01 01:02:23;;;;;;;4.40;4.00;;;;;;;16.20;100.00;99326.91;4841063;29;20034;-76
2022/08/01 01:04:48;;;;;;;5.18;3.88;;;;;;;16.19;100.00;99322.59;4841035;29;20054;-77
2022/08/01 01:07:32;;;;;;;4.07;3.78;;;;;;;16.17;100.00;99323.66;4840854;29;20125;-77
2022/08/01 01:10:09;;;;;;;4.85;3.75;;;;;;;16.21;100.00;99338.25;4841181;29;20038;-77
2022/08/01 01:13:04;;;;;;;4.40;4.00;;;;;;;16.18;100.00;99338.47;4841126;29;20034;-76
2022/08/01 01:15:45;;;;;;;5.05;3.72;;;;;;;16.18;100.00;99331.44;4841047;29;20026;-76
2022/08/01 01:18:24;;;;;;;5.13;3.80;;;;;;;16.12;100.00;99331.03;4840956;29;20099;-76
2022/08/01 01:21:17;;;;;;;7.20;4.50;;;;;;;16.14;100.00;99335.25;4841109;29;20026;-76
2022/08/01 01:23:46;;;;;;;6.18;4.10;;;;;;;16.14;100.00;99321.28;4840997;29;20033;-76
2022/08/01 01:26:17;;;;;;;4.22;3.83;;;;;;;16.15;100.00;99329.03;4841074;29;20474;-76
2022/08/01 01:28:51;;;;;;;4.75;3.80;;;;;;;16.16;100.00;99317.56;4841147;29;20034;-76
2022/08/01 01:31:20;;;;;;;5.30;4.13;;;;;;;16.11;100.00;99308.34;4840792;29;20072;-76
2022/08/01 01:33:46;;;;;;;4.90;3.85;;;;;;;16.13;100.00;99303.81;4841089;29;20030;-76
2022/08/01 01:36:14;;;;;;;4.38;3.97;;;;;;;16.17;100.00;99311.34;4840667;29;20130;-77
2022/08/01 01:38:44;;;;;;;5.47;4.65;;;;;;;16.15;100.00;99299.28;4841172;29;20038;-77
2022/08/01 01:41:15;;;;;;;6.13;3.90;;;;;;;16.14;100.00;99298.47;4840663;29;20037;-76
2022/08/01 01:43:42;;;;;;;4.25;3.83;;;;;;;16.20;100.00;99302.41;4840959;29;20036;-76
2022/08/01 01:46:10;;;;;;;4.47;4.07;;;;;;;16.23;100.00;99307.44;4839372;29;20427;-77
2022/08/01 01:48:37;;;;;;;4.88;3.72;;;;;;;16.23;100.00;99296.09;4840799;29;20034;-76
2022/08/01 01:51:03;;;;;;;4.10;3.70;;;;;;;16.27;100.00;99308.88;4842586;29;20527;-76
2022/08/01 01:53:31;;;;;;;6.70;4.05;;;;;;;16.29;100.00;99296.47;4844487;29;20390;-76
2022/08/01 01:55:58;;;;;;;4.13;3.50;;;;;;;16.35;100.00;99303.88;4844283;29;20022;-77
2022/08/01 01:58:26;;;;;;;6.28;3.88;;;;;;;16.39;100.00;99296.59;4843971;29;20041;-77
2022/08/01 02:00:53;;;;;;;4.40;4.00;;;;;;;16.35;100.00;99289.88;4844175;29;20034;-77
2022/08/01 02:03:20;;;;;;;4.03;3.40;;;;;;;16.40;100.00;99296.50;4843751;29;20474;-76
2022/08/01 02:05:47;;;;;;;4.43;3.60;;;;;;;16.40;100.00;99293.03;4843930;29;20057;-77
2022/08/01 02:08:15;;;;;;;5.90;3.55;;;;;;;16.37;100.00;99291.44;4843701;29;20449;-77
2022/08/01 02:11:17;;;;;;;5.32;3.55;;;;;;;16.40;100.00;99293.84;4844038;29;20065;-76
2022/08/01 02:13:29;;;;;;;5.00;3.78;;;;;;;16.33;100.00;99287.38;4843666;29;20113;-77
2022/08/01 02:15:54;;;;;;;4.43;3.88;;;;;;;16.35;100.00;99293.38;4843740;29;20070;-77
2022/08/01 02:18:20;;;;;;;4.45;3.50;;;;;;;16.37;100.00;99301.13;4843705;29;20063;-77
2022/08/01 02:20:45;;;;;;;3.85;3.42;;;;;;;16.32;100.00;99296.22;4843858;29;20030;-76
2022/08/01 02:23:12;;;;;;;4.47;3.80;;;;;;;16.32;100.00;99298.03;4843469;29;20478;-77
2022/08/01 02:25:52;;;;;;;4.22;3.83;;;;;;;16.31;100.00;99302.44;4843677;29;20522;-77
2022/08/01 02:28:28;;;;;;;6.18;3.97;;;;;;;16.21;100.00;99290.94;4843319;29;20487;-77
2022/08/01 02:31:00;;;;;;;3.90;3.53;;;;;;;16.19;100.00;99291.06;4843590;29;20117;-76
2022/08/01 02:33:37;;;;;;;4.40;3.85;;;;;;;16.21;100.00;99294.41;4843426;29;20034;-76
2022/08/01 02:36:03;;;;;;;4.20;3.60;;;;;;;16.19;100.00;99295.50;4843500;29;20475;-77
2022/08/01 02:38:32;;;;;;;4.60;3.65;;;;;;;16.17;100.00;99284.25;4843183;29;20372;-77
2022/08/01 02:41:03;;;;;;;4.47;4.07;;;;;;;16.14;100.00;99285.31;4843402;29;20124;-76
2022/08/01 02:43:31;;;;;;;4.53;4.00;;;;;;;16.20;100.00;99292.72;4843467;29;20062;-76
2022/08/01 02:46:01;;;;;;;6.38;4.28;;;;;;;16.15;100.00;99273.03;4843411;29;20647;-77
2022/08/01 02:48:28;;;;;;;4.78;4.20;;;;;;;16.22;100.00;99287.34;4843096;29;20065;-76
2022/08/01 02:50:56;;;;;;;5.47;4.13;;;;;;;16.25;100.00;99297.63;4843236;29;20041;-76
2022/08/01 02:53:24;;;;;;;6.60;4.05;;;;;;;16.22;100.00;99282.09;4842946;29;20070;-77
2022/08/01 02:55:52;;;;;;;4.38;3.97;;;;;;;16.24;100.00;99284.63;4843253;29;20041;-77
2022/08/01 02:58:23;;;;;;;8.75;5.15;;;;;;;16.23;100.00;99291.69;4843027;29;20030;-77
2022/08/01 03:00:49;;;;;;;4.45;4.05;;;;;;;16.14;100.00;99268.72;4843087;29;20129;-77
2022/08/01 03:03:16;;;;;;;4.47;3.90;;;;;;;16.19;100.00;99284.97;4842946;29;20445;-76
2022/08/01 03:05:43;;;;;;;7.75;4.15;;;;;;;16.21;100.00;99288.31;4843009;29;20170;-76
2022/08/01 03:08:10;;;;;;;6.53;4.25;;;;;;;16.18;100.00;99285.91;4842704;29;20463;-76
2022/08/01 03:10:39;;;;;;;7.07;4.18;;;;;;;16.18;100.00;99278.03;4843049;29;20042;-76
2022/08/01 03:13:07;;;;;;;4.97;4.32;;;;;;;16.09;100.00;99278.72;4842992;29;20029;-76
2022/08/01 03:15:37;;;;;;;4.82;3.90;;;;;;;16.13;100.00;99283.63;4843119;29;20066;-77
2022/08/01 03:18:06;;;;;;;5.00;3.83;;;;;;;16.18;100.00;99285.91;4842978;29;20057;-77
2022/08/01 03:20:33;;;;;;;4.95;4.00;;;;;;;16.30;100.00;99297.28;4825978;29;20044;-76
2022/08/01 03:23:01;;;;;;;5.55;4.13;;;;;;;16.28;100.00;99289.53;4842863;29;20034;-76
2022/08/01 03:25:28;;;;;;;7.57;4.40;;;;;;;16.31;100.00;99288.47;4842600;29;20034;-77
2022/08/01 03:27:58;;;;;;;7.35;4.90;;;;;;;16.30;100.00;99278.88;4842628;29;20113;-77
2022/08/01 03:30:25;;;;;;;4.75;4.03;;;;;;;16.29;100.00;99285.94;4842312;29;20082;-76
2022/08/01 03:32:50;;;;;;;5.97;4.55;;;;;;;16.38;100.00;99289.66;4842486;29;20045;-76
2022/08/01 03:35:17;;;;;;;5.53;4.00;;;;;;;16.40;100.00;99293.03;4842210;29;20033;-76
2022/08/01 03:37:45;;;;;;;6.25;4.60;;;;;;;16.38;100.00;99279.97;4842546;29;20487;-76
2022/08/01 03:40:15;;;;;;;5.82;4.07;;;;;;;16.39;100.00;99276.41;4842184;29;20037;-77
2022/08/01 03:42:46;;;;;;;4.93;4.07;;;;;;;16.51;100.00;99294.81;4842304;29;20117;-76
2022/08/01 03:45:21;;;;;;;5.25;4.22;;;;;;;16.51;100.00;99293.03;4842095;29;20742;-76
2022/08/01 03:47:48;;;;;;;4.95;3.90;;;;;;;16.56;100.00;99296.16;4842438;29;20042;-76
2022/08/01 03:50:16;;;;;;;4.20;3.80;;;;;;;16.61;100.00;99308.94;4841907;29;20021;-76
2022/08/01 03:52:44;;;;;;;5.38;4.55;;;;;;;16.55;100.00;99291.81;4842355;29;20120;-77
2022/08/01 03:55:11;;;;;;;5.68;4.03;;;;;;;16.65;100.00;99310.38;4841938;29;20065;-77
2022/08/01 03:57:37;;;;;;;4.95;4.45;;;;;;;16.63;100.00;99302.59;4842126;29;20090;-76
2022/08/01 04:00:07;;;;;;;5.07;4.50;;;;;;;16.64;100.00;99300.78;4841996;29;20086;-76
2022/08/01 04:02:33;;;;;;;6.85;4.60;;;;;;;16.68;100.00;99308.31;4842085;29;20383;-76
2022/08/01 04:04:59;;;;;;;4.68;4.18;;;;;;;16.62;100.00;99292.22;4842040;29;20057;-76
2022/08/01 04:07:29;;;;;;;7.30;4.50;;;;;;;16.67;100.00;99301.41;4842063;29;20471;-77
2022/08/01 04:09:54;;;;;;;4.95;3.95;;;;;;;16.70;100.00;99303.81;4841893;29;20083;-76
2022/08/01 04:12:20;;;;;;;5.05;4.00;;;;;;;16.64;100.00;99293.78;4841563;29;20037;-76
2022/08/01 04:14:46;;;;;;;5.28;4.53;;;;;;;16.65;100.00;99303.31;4841269;29;20034;-76
2022/08/01 04:17:12;;;;;;;4.45;4.05;;;;;;;16.60;100.00;99294.09;4841619;29;20030;-77
2022/08/01 04:19:37;;;;;;;6.38;4.45;;;;;;;16.60;100.00;99299.34;4841796;29;20038;-76
2022/08/01 04:22:04;;;;;;;6.13;4.28;;;;;;;16.63;100.00;99301.75;4841753;29;20487;-76
2022/08/01 04:24:31;;;;;;;5.30;4.20;;;;;;;16.69;100.00;99311.81;4841465;29;20055;-76
2022/08/01 04:26:59;;;;;;;5.03;4.03;;;;;;;16.68;100.00;99310.97;4841665;29;20026;-76
2022/08/01 04:29:27;;;;;;;6.18;4.68;;;;;;;16.63;100.00;99293.88;4841250;29;20129;-76
2022/08/01 04:31:55;;;;;;;4.97;4.07;;;;;;;16.70;100.00;99308.22;4841918;29;20038;-76
2022/08/01 04:34:25;;;;;;;5.72;4.32;;;;;;;16.66;100.00;99301.53;4841377;29;20034;-76
2022/08/01 04:36:54;;;;;;;4.90;4.28;;;;;;;16.62;100.00;99292.22;4841435;29;20109;-76
2022/08/01 04:39:21;;;;;;;7.03;4.65;;;;;;;16.64;100.00;99296.41;4841248;29;20379;-76
2022/08/01 04:41:47;;;;;;;5.05;4.32;;;;;;;16.66;100.00;99294.47;4841568;29;20037;-76
2022/08/01 04:44:14;;;;;;;6.35;4.95;;;;;;;16.67;100.00;99296.16;4841270;29;20042;-77
2022/08/01 04:46:40;;;;;;;7.65;4.93;;;;;;;16.77;100.00;99313.88;4841383;29;20084;-76
2022/08/01 04:49:11;;;;;;;5.18;4.75;;;;;;;16.72;100.00;99301.03;4841339;29;20034;-76
2022/08/01 04:51:36;;;;;;;;;;;;;;;16.79;100.00;99306.72;4841583;29;20034;-76
2022/08/01 04:54:02;;;;;;;4.93;4.43;;;;;;;16.77;100.00;99301.59;4841241;29;19969;-76
2022/08/01 04:56:27;;;;;;;6.53;4.53;;;;;;;16.79;100.00;99299.66;4841106;29;20049;-76
2022/08/01 05:01:37;;;;;;;5.95;5.35;;;;;;;16.93;100.00;99306.47;4841068;29;20044;-76
2022/08/01 05:04:02;;;;;;;5.20;4.55;;;;;;;16.92;100.00;99305.63;4841279;29;20378;-76
2022/08/01 05:06:28;;;;;;;5.43;4.80;;;;;;;16.93;100.00;99315.19;4841278;29;20054;-76
2022/08/01 05:08:53;;;;;;;8.60;5.40;;;;;;;16.93;100.00;99296.78;4841073;29;20026;-76
2022/08/01 05:11:18;;;;;;;6.68;4.85;;;;;;;16.95;100.00;99305.41;4841091;29;20053;-76
2022/08/01 05:13:44;;;;;;;7.50;5.03;;;;;;;16.92;100.00;99308.25;4841587;29;20110;-77
2022/08/01 05:16:09;;;;;;;6.47;4.80;;;;;;;16.96;100.00;99306.22;4841341;29;20030;-77
2022/08/01 05:18:34;;;;;;;5.88;5.20;;;;;;;17.06;100.00;99299.28;4840932;29;20030;-77
2022/08/01 05:21:00;;;;;;;5.22;4.63;;;;;;;17.16;100.00;99315.19;4841147;29;20070;-76
2022/08/01 05:23:25;;;;;;;7.57;6.35;;;;;;;17.17;100.00;99308.97;4840787;29;20065;-77
2022/08/01 05:25:51;;;;;;;9.25;5.55;;;;;;;17.22;100.00;99298.91;4842730;29;20034;-77
2022/08/01 05:28:16;;;;;;;5.38;4.80;;;;;;;17.42;100.00;99306.03;4844645;29;20081;-76
2022/08/01 05:30:41;;;;;;;6.15;5.00;;;;;;;17.59;100.00;99306.47;4844648;29;20030;-77
2022/08/01 05:33:07;;;;;;;6.07;5.07;;;;;;;17.68;100.00;99296.03;4844871;29;20029;-76
2022/08/01 05:35:32;;;;;;;7.05;5.68;;;;;;;17.86;100.00;99300.78;4844382;29;20038;-77
2022/08/01 05:37:57;;;;;;;6.07;5.47;;;;;;;18.04;100.00;99290.53;4844723;29;20068;-77
2022/08/01 05:40:23;;;;;;;8.48;5.15;;;;;;;18.17;100.00;99291.19;4844402;29;20045;-77
2022/08/01 05:42:48;;;;;;;8.10;5.30;;;;;;;18.23;100.00;99293.28;4844823;29;20054;-77
2022/08/01 05:45:13;;;;;;;6.85;5.70;;;;;;;18.32;100.00;99296.94;4844525;29;20041;-77
2022/08/01 05:47:39;;;;;;;7.85;5.32;;;;;;;18.38;100.00;99307.00;4844148;29;20034;-77
2022/08/01 05:50:04;;;;;;;7.93;6.13;;;;;;;18.35;100.00;99296.69;4844261;29;20030;-77
2022/08/01 05:52:30;;;;;;;6.45;5.07;;;;;;;18.31;100.00;99296.13;4843974;29;20487;-77
2022/08/01 05:54:56;;;;;;;6.57;5.85;;;;;;;18.40;100.00;99310.31;4844419;29;20073;-77
2022/08/01 05:57:21;;;;;;;9.40;5.97;;;;;;;18.45;100.00;99308.97;4844132;29;20037;-77
2022/08/01 05:59:46;;;;;;;7.00;5.43;;;;;;;18.60;100.00;99314.75;4844164;29;20078;-77
2022/08/01 06:02:12;;;;;;;7.55;6.05;;;;;;;18.73;100.00;99325.13;4844096;29;20032;-77
2022/08/01 06:04:37;;;;;;;8.40;5.60;;;;;;;18.73;100.00;99304.00;4843633;29;20548;-77
2022/08/01 06:07:02;;;;;;;9.68;5.95;;;;;;;18.88;100.00;99323.81;4843906;29;20029;-77
2022/08/01 06:09:28;;;;;;;6.75;4.88;;;;;;;18.91;100.00;99317.41;4843833;29;20069;-76
2022/08/01 06:11:54;;;;;;;8.80;5.80;;;;;;;18.94;100.00;99307.44;4844136;29;20026;-77
2022/08/01 06:14:19;;;;;;;7.63;5.90;;;;;;;19.12;100.00;99312.91;4843622;29;20116;-77
2022/08/01 06:16:44;;;;;;;7.82;6.03;;;;;;;19.25;100.00;99312.66;4844049;29;20037;-77
2022/08/01 06:19:10;;;;;;;8.52;5.75;;;;;;;19.42;100.00;99316.47;4843818;29;20082;-77
2022/08/01 06:21:35;;;;;;;8.07;5.15;;;;;;;19.63;100.00;99316.41;4843495;29;20087;-77
2022/08/01 06:24:01;;;;;;;9.45;6.05;;;;;;;19.62;100.00;99310.28;4843569;29;20041;-76
2022/08/01 06:26:26;;;;;;;6.18;5.57;;;;;;;19.80;100.00;99306.94;4843605;29;20112;-77
2022/08/01 06:28:52;;;;;;;8.80;5.85;;;;;;;20.05;100.00;99306.38;4843713;29;20034;-77
2022/08/01 06:31:17;;;;;;;6.43;5.78;;;;;;;20.28;100.00;99306.09;4843758;29;20038;-77
2022/08/01 06:33:42;;;;;;;8.60;5.80;;;;;;;20.48;100.00;99310.41;4843463;29;20082;-77
2022/08/01 06:36:09;;;;;;;6.60;5.70;;;;;;;20.68;99.64;99312.00;4843269;29;20078;-77
2022/08/01 06:38:34;;;;;;;8.55;5.50;;;;;;;21.00;98.75;99312.59;4843219;29;20065;-77
2022/08/01 06:40:59;;;;;;;7.22;5.50;;;;;;;21.35;96.84;99318.00;4843601;29;20158;-77
2022/08/01 06:43:25;;;;;;;5.15;4.43;;;;;;;21.68;95.30;99313.06;4843316;29;20030;-77
2022/08/01 06:45:50;;;;;;;6.03;5.43;;;;;;;22.01;94.17;99318.69;4843482;29;20026;-77
2022/08/01 06:48:15;;;;;;;6.28;5.30;;;;;;;22.76;91.42;99322.56;4843398;29;20026;-77
2022/08/01 06:50:41;;;;;;;5.93;5.05;;;;;;;25.09;83.96;99313.56;4842951;29;20057;-77
2022/08/01 06:53:06;;;;;;;5.32;4.80;;;;;;;26.59;76.94;99309.56;4843161;29;20090;-78
2022/08/01 06:55:32;;;;;;;11.55;5.32;;;;;;;27.45;71.92;99308.03;4843151;29;20022;-77
2022/08/01 06:57:57;;;;;;;5.15;3.92;;;;;;;26.90;71.90;99314.72;4843271;29;20042;-78
2022/08/01 07:00:24;;;;;;;10.73;4.47;;;;;;;26.32;73.45;99313.59;4842993;29;20030;-77
2022/08/01 07:02:54;;;;;;;5.18;4.40;;;;;;;26.45;74.03;99326.38;4843150;29;20033;-78
2022/08/01 07:05:20;;;;;;;7.53;4.10;;;;;;;27.74;71.04;99311.66;4842907;29;20054;-78
2022/08/01 07:07:45;;;;;;;5.90;4.50;;;;;;;29.52;65.54;99303.16;4843103;29;20022;-78
2022/08/01 07:10:11;;;;;;;8.38;4.28;;;;;;;32.21;57.88;99309.19;4843046;29;20088;-78
2022/08/01 07:12:37;;;;;;;6.60;4.00;;;;;;;31.87;55.33;99315.88;4842708;29;20033;-78
2022/08/01 07:15:05;;;;;;;5.55;4.18;;;;;;;32.46;52.98;99311.88;4842828;29;20487;-77
2022/08/01 07:17:31;;;;;;;4.43;3.53;;;;;;;31.38;53.01;99316.53;4842435;29;20513;-78
2022/08/01 07:19:56;;;;;;;5.55;3.75;;;;;;;30.20;55.70;99313.84;4842597;29;20038;-78
2022/08/01 07:22:22;;;;;;;4.85;3.70;;;;;;;29.44;57.23;99308.72;4842967;29;20436;-78
2022/08/01 07:24:47;;;;;;;4.93;3.72;;;;;;;28.72;59.66;99310.00;4842800;29;20186;-78
2022/08/01 07:27:12;;;;;;;5.53;3.63;;;;;;;28.08;61.68;99301.06;4842667;29;20388;-78
2022/08/01 07:29:38;;;;;;;6.22;4.18;;;;;;;27.65;62.48;99326.16;4842359;29;20124;-78
2022/08/01 07:32:04;;;;;;;4.88;3.85;;;;;;;26.96;63.35;99313.97;4842626;29;20033;-77
2022/08/01 07:34:29;;;;;;;5.38;3.78;;;;;;;26.50;64.96;99310.63;4842259;29;20061;-78
2022/08/01 07:36:55;;;;;;;7.57;4.35;;;;;;;26.07;65.83;99321.81;4842419;29;20033;-78
2022/08/01 07:39:20;;;;;;;4.80;3.78;;;;;;;25.68;67.33;99321.91;4842683;29;20121;-78
2022/08/01 07:41:45;;;;;;;6.47;4.72;;;;;;;25.45;68.16;99326.38;4842254;29;20022;-78
2022/08/01 07:44:11;;;;;;;6.45;4.47;;;;;;;25.16;69.60;99314.53;4842431;29;20034;-78
2022/08/01 07:46:36;;;;;;;6.18;4.97;;;;;;;24.97;70.00;99331.72;4842153;29;20372;-78
2022/08/01 07:49:01;;;;;;;5.25;4.13;;;;;;;24.70;71.22;99329.47;4841772;29;20057;-77
2022/08/01 07:51:27;;;;;;;5.25;4.63;;;;;;;24.50;72.69;99337.00;4841960;29;20382;-77
2022/08/01 07:53:52;;;;;;;6.43;4.68;;;;;;;24.22;73.37;99336.47;4842042;29;20042;-78
2022/08/01 07:56:17;;;;;;;6.55;4.53;;;;;;;24.03;73.50;99345.63;4842202;29;20505;-77
2022/08/01 07:58:43;;;;;;;4.90;4.40;;;;;;;23.82;75.26;99344.28;4841957;29;20042;-78
2022/08/01 08:01:08;;;;;;;7.25;4.30;;;;;;;23.64;76.19;99348.88;4842067;29;20029;-77
2022/08/01 08:03:34;;;;;;;7.45;4.35;;;;;;;23.42;76.54;99351.09;4841738;29;20029;-78
2022/08/01 08:05:59;;;;;;;5.60;4.32;;;;;;;23.26;77.52;99351.06;4841903;29;20054;-78
2022/08/01 08:08:24;;;;;;;6.20;4.45;;;;;;;23.06;78.58;99347.00;4841652;29;20364;-77
2022/08/01 08:10:50;;;;;;;6.55;4.65;;;;;;;22.91;79.70;99344.91;4841921;29;20037;-77
2022/08/01 08:13:15;;;;;;;4.80;4.35;;;;;;;22.84;79.97;99357.13;4841788;29;20117;-77
2022/08/01 08:15:41;;;;;;;8.98;4.88;;;;;;;22.75;81.16;99350.09;4841596;29;20038;-77
2022/08/01 08:18:06;;;;;;;5.20;4.60;;;;;;;22.71;82.12;99350.56;4841715;29;20044;-77
2022/08/01 08:20:31;;;;;;;7.43;4.63;;;;;;;22.66;82.47;99351.03;4841384;29;20044;-77
2022/08/01 08:23:00;;;;;;;6.47;4.85;;;;;;;22.55;83.67;99346.00;4841825;29;20095;-77
2022/08/01 08:25:25;;;;;;;5.32;4.80;;;;;;;22.45;84.74;99348.72;4841473;29;20030;-77
2022/08/01 08:27:52;;;;;;;7.13;4.88;;;;;;;22.45;86.19;99348.72;4841695;29;20034;-78
2022/08/01 08:30:18;;;;;;;5.30;4.80;;;;;;;22.48;87.71;99358.22;4825212;29;20439;-77
2022/08/01 08:32:43;;;;;;;6.18;5.28;;;;;;;22.42;88.86;99355.19;4841395;29;20034;-77
2022/08/01 08:35:09;;;;;;;6.70;5.10;;;;;;;22.39;90.04;99357.31;4841366;29;20034;-77
2022/08/01 08:37:35;;;;;;;5.07;4.57;;;;;;;22.33;90.06;99345.50;4841254;29;20045;-77
2022/08/01 08:40:02;;;;;;;4.63;4.18;;;;;;;22.44;90.65;99363.00;4841858;29;20427;-77
2022/08/01 08:42:27;;;;;;;5.30;4.78;;;;;;;22.45;91.13;99367.31;4841362;29;20451;-77
2022/08/01 08:44:55;;;;;;;5.22;4.25;;;;;;;22.41;91.50;99366.78;4841395;29;20034;-77
2022/08/01 08:47:22;;;;;;;5.00;4.00;;;;;;;22.55;91.60;99370.72;4841436;29;20056;-77
2022/08/01 08:49:49;;;;;;;5.40;4.82;;;;;;;22.74;91.09;99372.31;4841059;29;20496;-77
2022/08/01 08:52:17;;;;;;;4.97;4.55;;;;;;;22.97;90.48;99372.69;4841528;29;20037;-77
2022/08/01 08:54:43;;;;;;;6.10;4.05;;;;;;;23.06;89.35;99363.75;4841169;29;20105;-77
2022/08/01 08:57:10;;;;;;;5.10;4.60;;;;;;;23.25;88.45;99365.31;4841329;29;20061;-77
2022/08/01 08:59:37;;;;;;;4.75;4.25;;;;;;;23.68;86.35;99373.31;4840983;29;20037;-77
2022/08/01 09:02:04;;;;;;;5.70;4.30;;;;;;;23.96;85.39;99371.22;4841232;29;20101;-77
2022/08/01 09:04:30;;;;;;;6.80;4.45;;;;;;;24.26;83.82;99372.41;4841315;29;20033;-77
2022/08/01 09:06:55;;;;;;;6.85;4.53;;;;;;;24.43;81.52;99379.41;4841094;29;20415;-77
2022/08/01 09:09:20;;;;;;;4.90;4.40;;;;;;;24.47;79.65;99364.78;4841286;29;20034;-77
2022/08/01 09:11:46;;;;;;;5.00;4.38;;;;;;;24.76;79.15;99355.41;4840984;29;20038;-77
2022/08/01 09:14:13;;;;;;;5.72;5.13;;;;;;;25.12;77.25;99370.00;4817952;29;20035;-77
2022/08/01 09:16:44;;;;;;;5.32;4.10;;;;;;;25.39;76.20;99366.06;4822596;29;20038;-77
2022/08/01 09:19:15;;;;;;;4.65;4.10;;;;;;;25.75;74.41;99370.06;4823027;29;20117;-77
2022/08/01 09:21:56;;;;;;;5.90;4.45;;;;;;;26.09;72.80;99372.38;4822828;29;20030;-78
2022/08/01 09:24:22;;;;;;;4.88;4.38;;;;;;;26.26;72.97;99373.91;4823355;29;20103;-78
2022/08/01 09:26:48;;;;;;;5.03;4.07;;;;;;;26.23;71.29;99362.75;4830906;29;20502;-77
2022/08/01 09:29:25;;;;;;;4.80;3.78;;;;;;;26.27;71.00;99372.06;4827426;29;20035;-77
2022/08/01 09:31:51;;;;;;;4.07;3.67;;;;;;;26.50;70.22;99366.72;4827405;29;20034;-77
2022/08/01 09:34:25;;;;;;;6.15;4.22;;;;;;;26.57;68.75;99375.66;4824325;29;20031;-78
2022/08/01 09:36:56;;;;;;;4.70;3.60;;;;;;;26.59;69.29;99366.47;4830427;29;20041;-77
2022/08/01 09:39:24;;;;;;;5.18;3.42;;;;;;;26.70;70.19;99367.03;4831413;29;20401;-77
2022/08/01 09:41:49;;;;;;;4.53;3.67;;;;;;;26.90;68.79;99359.31;4838538;29;20395;-76
2022/08/01 09:44:17;;;;;;;4.65;3.40;;;;;;;27.20;68.68;99361.00;4840773;29;20026;-77
2022/08/01 09:46:54;;;;;;;4.38;3.72;;;;;;;27.43;66.59;99365.38;4832718;29;20420;-77
2022/08/01 09:49:34;;;;;;;4.07;3.63;;;;;;;27.28;66.62;99358.22;4838532;29;20045;-77
2022/08/01 09:52:22;;;;;;;3.75;3.45;;;;;;;27.01;67.77;99358.84;4839750;29;20030;-77
2022/08/01 09:55:05;;;;;;;3.75;3.10;;;;;;;26.79;69.34;99364.09;4839953;29;20102;-77
2022/08/01 09:57:30;;;;;;;6.43;3.42;;;;;;;26.57;69.52;99354.31;4839850;29;20073;-77
2022/08/01 09:59:58;;;;;;;4.05;3.50;;;;;;;26.41;69.96;99359.75;4840842;29;20527;-78
2022/08/01 10:02:31;;;;;;;3.72;3.38;;;;;;;26.11;68.06;99344.47;4840273;29;20471;-78
2022/08/01 10:04:57;;;;;;;3.75;3.45;;;;;;;26.00;70.06;99355.59;4840480;29;20065;-77
2022/08/01 10:07:23;;;;;;;5.82;3.35;;;;;;;25.99;71.63;99361.91;4840678;29;20030;-77
2022/08/01 10:09:48;;;;;;;5.78;3.60;;;;;;;26.05;71.08;99350.53;4840348;29;20036;-77
2022/08/01 10:12:16;;;;;;;4.03;3.63;;;;;;;25.99;70.59;99350.41;4842557;29;20081;-76
2022/08/01 10:14:44;;;;;;;5.18;3.55;;;;;;;26.07;71.02;99353.84;4843599;29;20029;-76
2022/08/01 10:17:14;;;;;;;4.20;3.65;;;;;;;26.11;71.16;99351.66;4843675;29;20073;-76
2022/08/01 10:19:41;;;;;;;6.05;3.60;;;;;;;26.19;70.93;99359.59;4843655;29;20491;-76
2022/08/01 10:22:17;;;;;;;4.85;3.45;;;;;;;26.20;69.34;99357.75;4843954;29;20083;-76
2022/08/01 10:24:45;;;;;;;5.53;3.40;;;;;;;26.31;69.55;99354.69;4843501;29;20038;-77
2022/08/01 10:27:14;;;;;;;3.75;3.20;;;;;;;26.53;69.28;99353.81;4843811;29;20029;-76
2022/08/01 10:29:49;;;;;;;4.05;3.15;;;;;;;26.89;69.35;99363.00;4843230;29;20030;-76
2022/08/01 10:32:16;;;;;;;3.60;3.30;;;;;;;27.16;68.50;99354.34;4843535;29;20490;-76
2022/08/01 10:34:41;;;;;;;4.78;3.60;;;;;;;27.30;66.88;99347.31;4843269;29;20394;-76
2022/08/01 10:37:07;;;;;;;4.20;3.47;;;;;;;27.45;66.92;99350.00;4843630;29;20037;-76
2022/08/01 10:39:33;;;;;;;5.47;3.33;;;;;;;27.44;66.09;99351.03;4843306;29;20065;-76
2022/08/01 10:41:59;;;;;;;3.72;2.90;;;;;;;27.33;66.78;99346.97;4843378;29;20026;-76
2022/08/01 10:44:27;;;;;;;3.60;3.10;;;;;;;27.25;67.64;99341.72;4843285;29;20258;-76
2022/08/01 10:46:59;;;;;;;4.30;3.50;;;;;;;27.08;68.59;99339.22;4843547;29;20454;-76
2022/08/01 10:49:28;;;;;;;3.65;3.35;;;;;;;27.00;68.34;99338.47;4843210;29;20277;-76
2022/08/01 10:51:55;;;;;;;5.40;2.92;;;;;;;27.00;67.78;99349.16;4843007;29;20026;-76
2022/08/01 10:54:24;;;;;;;3.33;3.03;;;;;;;26.87;68.47;99342.63;4843203;29;20038;-76
2022/08/01 10:56:52;;;;;;;3.22;2.92;;;;;;;26.70;68.78;99343.00;4842903;29;20368;-76
2022/08/01 10:59:25;;;;;;;6.07;3.85;;;;;;;26.46;69.94;99339.53;4843300;29;20453;-76
2022/08/01 11:02:01;;;;;;;5.70;3.60;;;;;;;26.26;70.27;99338.38;4842922;29;20026;-76
2022/08/01 11:04:42;;;;;;;3.90;3.60;;;;;;;26.28;71.00;99344.34;4843169;29;20038;-76
2022/08/01 11:07:19;;;;;;;4.50;3.30;;;;;;;26.22;71.03;99340.56;4842949;29;20130;-76
2022/08/01 11:09:59;;;;;;;4.53;3.28;;;;;;;26.10;70.65;99347.34;4842848;29;20471;-76
2022/08/01 11:12:38;;;;;;;3.83;3.50;;;;;;;25.85;72.34;99341.34;4843016;29;20399;-76
2022/08/01 11:15:04;;;;;;;6.97;3.70;;;;;;;25.71;75.52;99348.25;4842696;29;20560;-77
2022/08/01 11:17:31;;;;;;;4.05;3.65;;;;;;;25.62;77.39;99358.13;4842019;29;20109;-76
2022/08/01 11:20:11;;;;;;;4.32;3.92;;;;;;;25.56;77.80;99342.81;4842532;29;20080;-76
2022/08/01 11:22:55;;;;;;;;;;;;;;;25.77;77.07;99363.56;4837874;29;20030;-76
2022/08/01 11:25:21;;;;;;;4.10;3.63;;;;;;;25.98;76.43;99356.75;4840934;29;20065;-75
2022/08/01 11:27:46;;;;;;;3.95;3.50;;;;;;;26.07;75.57;99347.69;4842274;29;20109;-75
2022/08/01 11:30:11;;;;;;;6.35;3.75;;;;;;;26.20;74.45;99353.25;4842439;29;20057;-76
2022/08/01 11:32:48;;;;;;;3.83;3.53;;;;;;;26.29;73.02;99351.34;4842325;29;20058;-76
2022/08/01 11:35:14;;;;;;;5.07;4.05;;;;;;;26.28;71.75;99339.84;4842512;29;20053;-75